createdAt,value
2018-01-14T00:00:20.897Z,7.67
2018-01-14T00:01:23.455Z,8.37
2018-01-14T00:02:25.886Z,8.97
2018-01-14T00:03:28.367Z,9.30
2018-01-14T00:04:30.894Z,8.63
2018-01-14T00:05:33.358Z,8.90
2018-01-14T00:06:35.822Z,8.03
2018-01-14T00:07:38.289Z,8.30
2018-01-14T00:08:40.785Z,8.23
2018-01-14T00:09:43.307Z,8.97
2018-01-14T00:10:45.773Z,9.63
2018-01-14T00:11:48.240Z,8.70
2018-01-14T00:12:50.733Z,8.90
2018-01-14T00:13:53.231Z,8.90
2018-01-14T00:14:55.718Z,8.80
2018-01-14T00:15:58.199Z,9.30
2018-01-14T00:17:00.672Z,9.03
2018-01-14T00:18:03.137Z,7.73
2018-01-14T00:19:05.608Z,8.83
2018-01-14T00:20:08.086Z,8.53
2018-01-14T00:21:10.560Z,8.47
2018-01-14T00:22:13.035Z,8.63
2018-01-14T00:23:15.494Z,8.50
2018-01-14T00:24:17.980Z,9.20
2018-01-14T00:25:20.476Z,9.20
2018-01-14T00:26:22.941Z,8.40
2018-01-14T00:27:25.402Z,7.70
2018-01-14T00:28:27.857Z,7.73
2018-01-14T00:29:30.314Z,8.80
2018-01-14T00:30:32.820Z,7.87
2018-01-14T00:31:35.287Z,8.90
2018-01-14T00:32:37.767Z,8.50
2018-01-14T00:33:40.240Z,8.70
2018-01-14T00:34:42.728Z,8.63
2018-01-14T00:35:45.229Z,7.47
2018-01-14T00:36:47.690Z,8.30
2018-01-14T00:37:50.163Z,7.80
2018-01-14T00:38:52.626Z,8.33
2018-01-14T00:39:55.104Z,7.90
2018-01-14T00:40:57.598Z,8.67
2018-01-14T00:42:00.058Z,8.30
2018-01-14T00:43:02.537Z,7.80
2018-01-14T00:44:05.039Z,8.27
2018-01-14T00:45:07.517Z,8.97
2018-01-14T00:46:09.994Z,8.20
2018-01-14T00:47:12.475Z,8.90
2018-01-14T00:48:15.586Z,8.40
2018-01-14T00:49:18.056Z,8.30
2018-01-14T00:50:20.536Z,7.60
2018-01-14T00:51:23.015Z,8.30
2018-01-14T00:52:25.509Z,8.43
2018-01-14T00:53:27.987Z,8.10
2018-01-14T00:54:30.449Z,7.37
2018-01-14T00:55:32.906Z,6.87
2018-01-14T00:56:35.377Z,7.90
2018-01-14T00:57:37.847Z,8.50
2018-01-14T00:58:40.324Z,8.33
2018-01-14T00:59:42.799Z,7.73
2018-01-14T01:00:45.286Z,7.40
2018-01-14T01:01:47.768Z,7.13
2018-01-14T01:02:50.229Z,8.10
2018-01-14T01:03:52.690Z,8.13
2018-01-14T01:04:55.154Z,7.43
2018-01-14T01:05:57.626Z,8.23
2018-01-14T01:07:00.082Z,8.33
2018-01-14T01:08:02.556Z,8.23
2018-01-14T01:09:05.036Z,8.10
2018-01-14T01:10:07.516Z,7.57
2018-01-14T01:11:09.973Z,7.53
2018-01-14T01:12:12.433Z,8.20
2018-01-14T01:13:14.908Z,7.40
2018-01-14T01:14:17.384Z,7.80
2018-01-14T01:15:19.841Z,7.60
2018-01-14T01:16:22.306Z,7.30
2018-01-14T01:17:24.826Z,8.33
2018-01-14T01:18:27.296Z,7.20
2018-01-14T01:19:29.779Z,6.43
2018-01-14T01:20:32.241Z,7.47
2018-01-14T01:21:34.702Z,7.40
2018-01-14T01:22:37.171Z,7.90
2018-01-14T01:23:39.639Z,7.53
2018-01-14T01:24:42.101Z,7.60
2018-01-14T01:25:44.562Z,7.03
2018-01-14T01:26:47.038Z,6.80
2018-01-14T01:27:49.515Z,6.57
2018-01-14T01:28:51.977Z,7.77
2018-01-14T01:29:54.448Z,8.00
2018-01-14T01:30:56.911Z,7.00
2018-01-14T01:31:59.369Z,6.93
2018-01-14T01:33:01.829Z,6.57
2018-01-14T01:34:04.297Z,7.10
2018-01-14T01:35:06.772Z,6.67
2018-01-14T01:36:09.244Z,7.77
2018-01-14T01:37:11.723Z,7.03
2018-01-14T01:38:14.225Z,7.00
2018-01-14T01:39:16.720Z,7.10
2018-01-14T01:40:19.192Z,6.70
2018-01-14T01:41:21.668Z,7.13
2018-01-14T01:42:24.122Z,6.27
2018-01-14T01:43:26.619Z,7.53
2018-01-14T01:44:29.079Z,6.63
2018-01-14T01:45:31.558Z,6.80
2018-01-14T01:46:34.029Z,6.53
2018-01-14T01:47:36.508Z,6.73
2018-01-14T01:48:38.990Z,7.30
2018-01-14T01:49:41.454Z,7.47
2018-01-14T01:50:43.922Z,7.17
2018-01-14T01:51:46.403Z,6.40
2018-01-14T01:52:48.861Z,7.87
2018-01-14T01:53:51.360Z,6.40
2018-01-14T01:54:53.940Z,6.97
2018-01-14T01:55:56.405Z,7.03
2018-01-14T01:56:58.861Z,6.80
2018-01-14T01:58:01.318Z,6.37
2018-01-14T01:59:03.820Z,6.80
2018-01-14T02:00:06.275Z,6.70
2018-01-14T02:01:08.733Z,6.67
2018-01-14T02:02:11.204Z,6.30
2018-01-14T02:03:13.670Z,6.30
2018-01-14T02:04:16.149Z,6.77
2018-01-14T02:05:18.614Z,6.97
2018-01-14T02:06:21.105Z,6.87
2018-01-14T02:07:23.562Z,6.00
2018-01-14T02:08:26.036Z,6.40
2018-01-14T02:09:28.533Z,6.60
2018-01-14T02:10:30.994Z,6.57
2018-01-14T02:11:33.463Z,6.70
2018-01-14T02:12:35.922Z,5.80
2018-01-14T02:13:38.395Z,6.80
2018-01-14T02:14:40.878Z,5.77
2018-01-14T02:15:43.479Z,6.80
2018-01-14T02:16:45.952Z,6.17
2018-01-14T02:17:48.413Z,6.87
2018-01-14T02:18:50.866Z,6.33
2018-01-14T02:19:53.360Z,6.13
2018-01-14T02:20:55.833Z,6.27
2018-01-14T02:21:58.308Z,7.10
2018-01-14T02:23:00.770Z,6.40
2018-01-14T02:24:03.253Z,6.70
2018-01-14T02:25:05.734Z,5.97
2018-01-14T02:26:08.208Z,5.80
2018-01-14T02:27:10.679Z,6.43
2018-01-14T02:28:13.133Z,6.30
2018-01-14T02:29:15.602Z,6.93
2018-01-14T02:30:18.100Z,6.00
2018-01-14T02:31:20.581Z,5.97
2018-01-14T02:32:23.051Z,5.90
2018-01-14T02:33:25.510Z,6.80
2018-01-14T02:34:27.980Z,6.70
2018-01-14T02:35:30.472Z,6.17
2018-01-14T02:36:32.931Z,6.30
2018-01-14T02:37:35.404Z,5.90
2018-01-14T02:38:37.868Z,5.83
2018-01-14T02:39:40.356Z,6.60
2018-01-14T02:40:42.871Z,6.53
2018-01-14T02:41:45.339Z,5.90
2018-01-14T02:42:47.895Z,6.10
2018-01-14T02:43:50.368Z,6.33
2018-01-14T02:44:52.840Z,6.23
2018-01-14T02:45:55.318Z,5.97
2018-01-14T02:46:57.804Z,5.50
2018-01-14T02:48:00.282Z,6.17
2018-01-14T02:49:02.758Z,5.73
2018-01-14T02:50:05.214Z,5.77
2018-01-14T02:51:07.716Z,6.23
2018-01-14T02:52:10.197Z,5.40
2018-01-14T02:53:12.658Z,5.57
2018-01-14T02:54:15.132Z,6.07
2018-01-14T02:55:17.593Z,6.40
2018-01-14T02:56:20.070Z,5.97
2018-01-14T02:57:22.538Z,6.60
2018-01-14T02:58:25.010Z,6.10
2018-01-14T02:59:27.492Z,5.73
2018-01-14T03:00:29.949Z,6.07
2018-01-14T03:01:32.436Z,5.50
2018-01-14T03:02:34.903Z,5.80
2018-01-14T03:03:37.369Z,6.00
2018-01-14T03:04:39.826Z,5.23
2018-01-14T03:05:42.295Z,5.90
2018-01-14T03:06:44.784Z,6.23
2018-01-14T03:07:47.428Z,5.57
2018-01-14T03:08:49.881Z,5.63
2018-01-14T03:09:52.352Z,4.83
2018-01-14T03:10:54.801Z,5.70
2018-01-14T03:11:57.292Z,6.00
2018-01-14T03:12:59.761Z,6.07
2018-01-14T03:14:02.232Z,5.63
2018-01-14T03:15:04.709Z,6.63
2018-01-14T03:16:07.161Z,5.73
2018-01-14T03:17:09.639Z,5.43
2018-01-14T03:18:12.094Z,5.33
2018-01-14T03:19:14.549Z,5.80
2018-01-14T03:20:17.010Z,5.90
2018-01-14T03:21:19.469Z,5.93
2018-01-14T03:22:22.002Z,5.30
2018-01-14T03:23:24.471Z,5.23
2018-01-14T03:24:26.944Z,6.20
2018-01-14T03:25:29.422Z,5.47
2018-01-14T03:26:31.895Z,5.37
2018-01-14T03:27:34.374Z,5.60
2018-01-14T03:28:36.837Z,5.27
2018-01-14T03:29:39.297Z,5.77
2018-01-14T03:30:41.779Z,4.97
2018-01-14T03:31:44.259Z,5.33
2018-01-14T03:32:46.748Z,5.50
2018-01-14T03:33:49.201Z,5.60
2018-01-14T03:34:51.667Z,5.10
2018-01-14T03:35:54.121Z,5.43
2018-01-14T03:36:56.608Z,4.80
2018-01-14T03:37:59.082Z,5.57
2018-01-14T03:39:01.549Z,5.10
2018-01-14T03:40:04.020Z,5.20
2018-01-14T03:41:06.483Z,5.63
2018-01-14T03:42:08.956Z,4.80
2018-01-14T03:43:11.449Z,5.57
2018-01-14T03:44:13.919Z,5.20
2018-01-14T03:45:16.401Z,5.77
2018-01-14T03:46:18.870Z,6.00
2018-01-14T03:47:21.331Z,6.73
2018-01-14T03:48:23.812Z,4.90
2018-01-14T03:49:26.290Z,4.80
2018-01-14T03:50:28.768Z,5.10
2018-01-14T03:51:31.249Z,4.60
2018-01-14T03:52:33.707Z,4.93
2018-01-14T03:53:36.182Z,5.30
2018-01-14T03:54:38.656Z,5.20
2018-01-14T03:55:41.168Z,5.70
2018-01-14T03:56:43.638Z,5.23
2018-01-14T03:57:46.098Z,4.80
2018-01-14T03:58:48.591Z,4.63
2018-01-14T03:59:51.100Z,4.97
2018-01-14T04:00:53.558Z,4.53
2018-01-14T04:01:56.018Z,5.20
2018-01-14T04:02:57.778Z,5.53
2018-01-14T04:04:00.271Z,5.00
2018-01-14T04:05:02.739Z,4.90
2018-01-14T04:06:05.211Z,4.87
2018-01-14T04:07:07.674Z,4.87
2018-01-14T04:08:10.148Z,5.40
2018-01-14T04:09:12.648Z,5.80
2018-01-14T04:10:15.119Z,5.27
2018-01-14T04:11:17.602Z,5.00
2018-01-14T04:12:20.062Z,5.47
2018-01-14T04:13:22.524Z,4.67
2018-01-14T04:14:25.028Z,5.13
2018-01-14T04:15:27.490Z,4.73
2018-01-14T04:16:30.059Z,5.83
2018-01-14T04:17:32.517Z,5.50
2018-01-14T04:18:35.078Z,5.10
2018-01-14T04:19:37.564Z,5.00
2018-01-14T04:20:40.032Z,4.93
2018-01-14T04:21:42.508Z,4.80
2018-01-14T04:22:44.976Z,5.30
2018-01-14T04:23:47.452Z,5.60
2018-01-14T04:24:49.943Z,4.93
2018-01-14T04:25:52.412Z,5.20
2018-01-14T04:26:54.880Z,5.17
2018-01-14T04:27:57.351Z,4.90
2018-01-14T04:28:59.820Z,4.73
2018-01-14T04:30:02.302Z,4.30
2018-01-14T04:31:04.772Z,5.03
2018-01-14T04:32:07.235Z,5.40
2018-01-14T04:33:09.716Z,5.37
2018-01-14T04:34:12.240Z,4.70
2018-01-14T04:35:14.718Z,4.60
2018-01-14T04:36:17.174Z,4.23
2018-01-14T04:37:19.624Z,4.70
2018-01-14T04:38:22.185Z,3.83
2018-01-14T04:39:24.656Z,4.60
2018-01-14T04:40:27.146Z,4.73
2018-01-14T04:41:29.660Z,4.80
2018-01-14T04:42:32.221Z,5.20
2018-01-14T04:43:34.681Z,4.70
2018-01-14T04:44:37.152Z,4.60
2018-01-14T04:45:39.648Z,4.13
2018-01-14T04:46:42.106Z,5.07
2018-01-14T04:47:44.576Z,4.57
2018-01-14T04:48:47.057Z,5.57
2018-01-14T04:49:49.524Z,4.33
2018-01-14T04:50:52.026Z,5.20
2018-01-14T04:51:54.512Z,5.10
2018-01-14T04:52:56.975Z,4.07
2018-01-14T04:53:59.444Z,4.40
2018-01-14T04:55:01.903Z,4.67
2018-01-14T04:56:04.397Z,4.70
2018-01-14T04:57:06.878Z,4.80
2018-01-14T04:58:09.349Z,4.60
2018-01-14T04:59:11.806Z,4.60
2018-01-14T05:00:14.266Z,4.47
2018-01-14T05:01:16.759Z,4.60
2018-01-14T05:02:19.217Z,4.70
2018-01-14T05:03:21.682Z,4.40
2018-01-14T05:04:24.160Z,5.00
2018-01-14T05:05:26.635Z,4.70
2018-01-14T05:06:29.127Z,4.50
2018-01-14T05:07:31.599Z,4.40
2018-01-14T05:08:34.073Z,4.70
2018-01-14T05:09:36.540Z,5.00
2018-01-14T05:10:38.998Z,4.30
2018-01-14T05:11:41.484Z,4.20
2018-01-14T05:12:43.955Z,4.10
2018-01-14T05:13:46.424Z,4.30
2018-01-14T05:14:48.900Z,4.30
2018-01-14T05:15:51.357Z,4.07
2018-01-14T05:16:53.856Z,3.90
2018-01-14T05:17:56.349Z,4.63
2018-01-14T05:18:58.820Z,4.43
2018-01-14T05:20:01.288Z,4.37
2018-01-14T05:21:03.742Z,3.80
2018-01-14T05:22:06.232Z,3.90
2018-01-14T05:23:08.690Z,4.00
2018-01-14T05:24:11.155Z,4.47
2018-01-14T05:25:13.699Z,4.50
2018-01-14T05:26:16.149Z,4.00
2018-01-14T05:27:18.643Z,3.63
2018-01-14T05:28:21.094Z,4.03
2018-01-14T05:29:23.550Z,4.60
2018-01-14T05:30:26.027Z,4.27
2018-01-14T05:31:28.492Z,4.57
2018-01-14T05:32:30.988Z,4.53
2018-01-14T05:33:33.459Z,4.90
2018-01-14T05:34:35.932Z,4.40
2018-01-14T05:35:38.387Z,4.90
2018-01-14T05:36:40.871Z,4.47
2018-01-14T05:37:43.368Z,4.03
2018-01-14T05:38:45.840Z,4.27
2018-01-14T05:39:48.301Z,4.30
2018-01-14T05:40:50.753Z,4.20
2018-01-14T05:41:53.227Z,4.67
2018-01-14T05:42:55.723Z,4.20
2018-01-14T05:43:58.204Z,4.10
2018-01-14T05:45:00.665Z,4.40
2018-01-14T05:46:03.140Z,4.27
2018-01-14T05:47:05.594Z,4.20
2018-01-14T05:48:08.728Z,3.80
2018-01-14T05:49:11.200Z,5.00
2018-01-14T05:50:13.657Z,4.73
2018-01-14T05:51:16.145Z,4.80
2018-01-14T05:52:18.602Z,6.00
2018-01-14T05:53:21.092Z,4.97
2018-01-14T05:54:23.545Z,4.17
2018-01-14T05:55:26.023Z,4.30
2018-01-14T05:56:28.500Z,4.30
2018-01-14T05:57:30.987Z,5.00
2018-01-14T05:58:33.496Z,4.57
2018-01-14T05:59:35.962Z,4.80
2018-01-14T06:00:38.438Z,4.53
2018-01-14T06:01:40.898Z,5.00
2018-01-14T06:02:43.376Z,4.80
2018-01-14T06:03:45.884Z,4.70
2018-01-14T06:04:48.358Z,4.33
2018-01-14T06:05:50.873Z,5.10
2018-01-14T06:06:53.309Z,5.47
2018-01-14T06:07:55.784Z,4.50
2018-01-14T06:08:58.313Z,4.67
2018-01-14T06:10:00.778Z,4.20
2018-01-14T06:11:03.235Z,4.27
2018-01-14T06:12:05.698Z,4.80
2018-01-14T06:13:08.172Z,5.03
2018-01-14T06:14:10.649Z,4.30
2018-01-14T06:15:13.105Z,4.60
2018-01-14T06:16:15.582Z,5.30
2018-01-14T06:17:18.059Z,4.00
2018-01-14T06:18:20.555Z,4.60
2018-01-14T06:19:23.030Z,4.43
2018-01-14T06:20:25.489Z,5.10
2018-01-14T06:21:27.971Z,5.20
2018-01-14T06:22:30.434Z,4.20
2018-01-14T06:23:32.905Z,4.70
2018-01-14T06:24:35.402Z,4.60
2018-01-14T06:25:37.882Z,4.40
2018-01-14T06:26:40.350Z,4.93
2018-01-14T06:27:42.849Z,4.30
2018-01-14T06:28:45.349Z,4.93
2018-01-14T06:29:47.840Z,4.40
2018-01-14T06:30:50.316Z,4.67
2018-01-14T06:31:52.777Z,4.03
2018-01-14T06:32:55.233Z,4.47
2018-01-14T06:33:57.709Z,4.83
2018-01-14T06:35:00.190Z,4.10
2018-01-14T06:36:02.693Z,4.30
2018-01-14T06:37:05.168Z,4.10
2018-01-14T06:38:07.689Z,4.53
2018-01-14T06:39:10.178Z,3.63
2018-01-14T06:40:12.684Z,4.70
2018-01-14T06:41:15.142Z,4.00
2018-01-14T06:42:17.611Z,4.77
2018-01-14T06:43:20.083Z,4.50
2018-01-14T06:44:22.547Z,4.20
2018-01-14T06:45:25.036Z,4.30
2018-01-14T06:46:27.509Z,4.80
2018-01-14T06:47:29.966Z,4.67
2018-01-14T06:48:32.442Z,4.27
2018-01-14T06:49:34.918Z,4.07
2018-01-14T06:50:37.676Z,4.83
2018-01-14T06:51:40.135Z,4.37
2018-01-14T06:52:42.604Z,4.13
2018-01-14T06:53:45.069Z,4.13
2018-01-14T06:54:47.559Z,4.40
2018-01-14T06:55:50.079Z,4.25
2018-01-14T06:56:52.551Z,4.37
2018-01-14T06:57:55.034Z,4.07
2018-01-14T06:58:57.512Z,4.33
2018-01-14T06:59:59.985Z,4.17
2018-01-14T07:01:02.508Z,4.50
2018-01-14T07:02:04.994Z,4.37
2018-01-14T07:03:07.454Z,4.20
2018-01-14T07:04:09.906Z,3.70
2018-01-14T07:05:12.376Z,3.40
2018-01-14T07:06:14.872Z,4.33
2018-01-14T07:07:17.364Z,3.87
2018-01-14T07:08:19.840Z,4.27
2018-01-14T07:09:22.303Z,3.53
2018-01-14T07:10:24.758Z,4.30
2018-01-14T07:11:27.288Z,4.63
2018-01-14T07:12:29.764Z,4.20
2018-01-14T07:13:32.217Z,4.30
2018-01-14T07:14:34.673Z,3.93
2018-01-14T07:15:37.144Z,3.80
2018-01-14T07:16:39.630Z,3.97
2018-01-14T07:17:42.085Z,4.60
2018-01-14T07:18:44.560Z,3.83
2018-01-14T07:19:47.025Z,4.00
2018-01-14T07:20:49.497Z,3.50
2018-01-14T07:21:51.986Z,4.30
2018-01-14T07:22:54.450Z,3.53
2018-01-14T07:23:56.940Z,5.90
2018-01-14T07:24:59.402Z,3.80
2018-01-14T07:26:01.874Z,3.95
2018-01-14T07:27:04.376Z,4.15
2018-01-14T07:28:06.829Z,4.83
2018-01-14T07:29:09.294Z,3.95
2018-01-14T07:30:11.850Z,4.10
2018-01-14T07:31:14.305Z,3.50
2018-01-14T07:32:16.815Z,4.07
2018-01-14T07:33:19.294Z,3.72
2018-01-14T07:34:21.767Z,3.60
2018-01-14T07:35:24.254Z,4.00
2018-01-14T07:36:26.718Z,4.07
2018-01-14T07:37:29.225Z,3.80
2018-01-14T07:38:31.704Z,3.87
2018-01-14T07:39:34.170Z,4.13
2018-01-14T07:40:36.639Z,3.60
2018-01-14T07:41:39.108Z,3.65
2018-01-14T07:42:41.617Z,3.67
2018-01-14T07:43:44.108Z,3.83
2018-01-14T07:44:46.569Z,3.47
2018-01-14T07:45:49.058Z,3.25
2018-01-14T07:46:51.521Z,3.97
2018-01-14T07:47:54.014Z,4.00
2018-01-14T07:48:56.477Z,4.60
2018-01-14T07:49:58.950Z,3.70
2018-01-14T07:51:01.444Z,3.80
2018-01-14T07:52:03.897Z,3.87
2018-01-14T07:53:06.394Z,3.90
2018-01-14T07:54:09.060Z,3.60
2018-01-14T07:55:11.550Z,3.90
2018-01-14T07:56:14.046Z,3.97
2018-01-14T07:57:16.536Z,3.92
2018-01-14T07:58:19.057Z,4.47
2018-01-14T07:59:21.543Z,3.85
2018-01-14T08:00:24.014Z,4.10
2018-01-14T08:01:26.478Z,3.87
2018-01-14T08:02:28.943Z,4.30
2018-01-14T08:03:31.415Z,3.80
2018-01-14T08:04:33.885Z,3.60
2018-01-14T08:05:36.362Z,3.00
2018-01-14T08:06:38.830Z,3.80
2018-01-14T08:07:41.315Z,3.65
2018-01-14T08:08:43.832Z,4.20
2018-01-14T08:09:46.306Z,3.93
2018-01-14T08:10:48.765Z,3.50
2018-01-14T08:11:51.236Z,3.03
2018-01-14T08:12:53.721Z,4.47
2018-01-14T08:13:56.225Z,3.97
2018-01-14T08:14:58.689Z,3.22
2018-01-14T08:16:01.154Z,3.87
2018-01-14T08:17:03.622Z,3.50
2018-01-14T08:18:06.098Z,2.80
2018-01-14T08:19:08.608Z,4.22
2018-01-14T08:20:11.080Z,3.87
2018-01-14T08:21:13.560Z,3.53
2018-01-14T08:22:16.039Z,3.65
2018-01-14T08:23:18.512Z,3.47
2018-01-14T08:24:21.005Z,3.40
2018-01-14T08:25:23.479Z,3.27
2018-01-14T08:26:25.950Z,3.17
2018-01-14T08:27:28.426Z,3.83
2018-01-14T08:28:30.890Z,3.97
2018-01-14T08:29:33.387Z,3.50
2018-01-14T08:30:35.991Z,3.72
2018-01-14T08:31:38.465Z,4.00
2018-01-14T08:32:40.949Z,3.42
2018-01-14T08:33:43.460Z,3.90
2018-01-14T08:34:45.939Z,3.27
2018-01-14T08:35:48.420Z,3.17
2018-01-14T08:36:50.885Z,3.55
2018-01-14T08:37:53.349Z,4.10
2018-01-14T08:38:55.848Z,3.62
2018-01-14T08:39:58.530Z,3.20
2018-01-14T08:41:01.000Z,3.90
2018-01-14T08:42:03.473Z,3.57
2018-01-14T08:43:05.929Z,3.87
2018-01-14T08:44:08.386Z,4.20
2018-01-14T08:45:10.888Z,3.60
2018-01-14T08:46:13.372Z,4.00
2018-01-14T08:47:15.830Z,3.03
2018-01-14T08:48:18.299Z,3.90
2018-01-14T08:49:21.343Z,3.90
2018-01-14T08:50:23.837Z,5.10
2018-01-14T08:51:26.317Z,5.78
2018-01-14T08:52:28.805Z,5.80
2018-01-14T08:53:31.278Z,5.45
2018-01-14T08:54:33.738Z,6.60
2018-01-14T08:55:36.244Z,6.43
2018-01-14T08:56:38.727Z,6.97
2018-01-14T08:57:41.220Z,6.78
2018-01-14T08:58:43.708Z,7.20
2018-01-14T08:59:46.206Z,7.43
2018-01-14T09:00:48.720Z,8.30
2018-01-14T09:01:51.226Z,7.95
2018-01-14T09:02:53.704Z,8.53
2018-01-14T09:03:56.170Z,8.40
2018-01-14T09:04:58.637Z,8.57
2018-01-14T09:06:01.135Z,9.63
2018-01-14T09:07:03.600Z,9.10
2018-01-14T09:08:06.064Z,8.40
2018-01-14T09:09:08.696Z,8.00
2018-01-14T09:10:11.166Z,7.57
2018-01-14T09:11:13.664Z,8.27
2018-01-14T09:12:16.136Z,7.87
2018-01-14T09:13:18.670Z,8.83
2018-01-14T09:14:21.182Z,8.95
2018-01-14T09:15:23.645Z,8.03
2018-01-14T09:16:26.135Z,8.93
2018-01-14T09:17:28.620Z,9.82
2018-01-14T09:18:31.093Z,9.30
2018-01-14T09:19:33.567Z,9.63
2018-01-14T09:20:36.044Z,9.80
2018-01-14T09:21:38.532Z,9.90
2018-01-14T09:22:41.003Z,9.93
2018-01-14T09:23:43.492Z,10.32
2018-01-14T09:24:45.974Z,11.27
2018-01-14T09:25:48.460Z,10.00
2018-01-14T09:26:50.937Z,10.15
2018-01-14T09:27:53.410Z,9.73
2018-01-14T09:28:55.877Z,10.60
2018-01-14T09:29:58.352Z,10.80
2018-01-14T09:31:03.816Z,9.73
2018-01-14T09:32:06.290Z,10.25
2018-01-14T09:33:08.757Z,11.30
2018-01-14T09:34:11.248Z,10.45
2018-01-14T09:35:13.726Z,11.75
2018-01-14T09:36:16.201Z,10.75
2018-01-14T09:37:18.664Z,10.97
2018-01-14T09:38:21.137Z,11.05
2018-01-14T09:39:23.646Z,10.85
2018-01-14T09:40:26.122Z,11.98
2018-01-14T09:41:28.716Z,10.50
2018-01-14T09:42:31.185Z,11.32
2018-01-14T09:43:33.654Z,10.98
2018-01-14T09:44:36.130Z,10.23
2018-01-14T09:45:38.605Z,11.23
2018-01-14T09:46:41.157Z,11.63
2018-01-14T09:47:43.626Z,11.05
2018-01-14T09:48:46.102Z,10.57
2018-01-14T09:49:48.596Z,10.70
2018-01-14T09:50:51.088Z,10.95
2018-01-14T09:51:53.572Z,11.57
2018-01-14T09:52:56.046Z,11.20
2018-01-14T09:53:58.560Z,11.88
2018-01-14T09:55:01.039Z,11.98
2018-01-14T09:56:03.524Z,12.10
2018-01-14T09:57:06.009Z,12.20
2018-01-14T09:58:08.495Z,12.20
2018-01-14T09:59:10.974Z,13.82
2018-01-14T10:00:13.451Z,13.15
2018-01-14T10:01:15.936Z,12.85
2018-01-14T10:02:18.410Z,14.40
2018-01-14T10:03:20.885Z,13.60
2018-01-14T10:04:23.382Z,13.18
2018-01-14T10:05:25.899Z,13.52
2018-01-14T10:06:28.387Z,12.02
2018-01-14T10:07:30.889Z,12.88
2018-01-14T10:08:33.378Z,12.07
2018-01-14T10:09:35.858Z,12.75
2018-01-14T10:10:38.337Z,11.90
2018-01-14T10:11:40.810Z,11.65
2018-01-14T10:12:43.296Z,12.48
2018-01-14T10:13:45.765Z,11.18
2018-01-14T10:14:48.250Z,11.88
2018-01-14T10:15:50.737Z,10.93
2018-01-14T10:16:53.224Z,12.07
2018-01-14T10:17:55.697Z,11.65
2018-01-14T10:18:58.171Z,11.43
2018-01-14T10:20:00.649Z,12.18
2018-01-14T10:21:03.140Z,11.45
2018-01-14T10:22:05.642Z,11.45
2018-01-14T10:23:08.117Z,11.20
2018-01-14T10:24:10.586Z,11.60
2018-01-14T10:25:13.073Z,11.40
2018-01-14T10:26:15.563Z,11.05
2018-01-14T10:27:18.034Z,12.03
2018-01-14T10:28:22.832Z,10.53
2018-01-14T10:29:25.306Z,10.43
2018-01-14T10:30:27.814Z,11.73
2018-01-14T10:31:30.287Z,9.88
2018-01-14T10:32:32.762Z,11.07
2018-01-14T10:33:35.238Z,11.00
2018-01-14T10:34:37.732Z,10.60
2018-01-14T10:35:40.250Z,10.63
2018-01-14T10:36:42.758Z,9.93
2018-01-14T10:37:45.229Z,10.98
2018-01-14T10:38:47.698Z,11.20
2018-01-14T10:39:50.177Z,10.90
2018-01-14T10:40:52.669Z,11.82
2018-01-14T10:41:55.146Z,11.15
2018-01-14T10:42:57.626Z,9.95
2018-01-14T10:44:00.101Z,10.52
2018-01-14T10:45:02.605Z,11.15
2018-01-14T10:46:05.086Z,10.50
2018-01-14T10:47:07.578Z,11.18
2018-01-14T10:48:10.948Z,11.15
2018-01-14T10:49:13.426Z,10.07
2018-01-14T10:50:15.902Z,10.55
2018-01-14T10:51:18.378Z,10.70
2018-01-14T10:52:21.722Z,10.23
2018-01-14T10:53:24.190Z,9.75
2018-01-14T10:54:26.667Z,11.20
2018-01-14T10:55:29.179Z,10.48
2018-01-14T10:56:31.650Z,10.90
2018-01-14T10:57:34.127Z,10.20
2018-01-14T10:58:36.601Z,10.45
2018-01-14T10:59:39.080Z,11.45
2018-01-14T11:00:47.329Z,13.38
2018-01-14T11:01:49.806Z,11.35
2018-01-14T11:02:52.308Z,11.90
2018-01-14T11:03:54.791Z,13.33
2018-01-14T11:04:57.277Z,11.50
2018-01-14T11:05:59.807Z,11.23
2018-01-14T11:07:02.308Z,11.30
2018-01-14T11:08:04.785Z,11.55
2018-01-14T11:09:07.304Z,11.93
2018-01-14T11:10:09.802Z,11.40
2018-01-14T11:11:12.296Z,11.48
2018-01-14T11:12:14.788Z,10.90
2018-01-14T11:13:17.276Z,9.85
2018-01-14T11:14:19.759Z,10.45
2018-01-14T11:15:22.242Z,11.05
2018-01-14T11:16:24.726Z,11.07
2018-01-14T11:17:27.216Z,11.12
2018-01-14T11:18:29.716Z,10.95
2018-01-14T11:19:32.191Z,10.98
2018-01-14T11:20:34.682Z,10.95
2018-01-14T11:21:37.184Z,10.98
2018-01-14T11:22:39.678Z,10.25
2018-01-14T11:23:42.158Z,10.70
2018-01-14T11:24:44.638Z,10.05
2018-01-14T11:25:47.134Z,11.10
2018-01-14T11:26:49.631Z,10.65
2018-01-14T11:27:52.105Z,10.75
2018-01-14T11:28:54.582Z,10.90
2018-01-14T11:30:09.660Z,10.80
2018-01-14T11:31:12.145Z,11.05
2018-01-14T11:32:14.723Z,10.82
2018-01-14T11:33:17.194Z,10.23
2018-01-14T11:34:19.676Z,9.97
2018-01-14T11:35:22.146Z,10.05
2018-01-14T11:36:24.643Z,10.70
2018-01-14T11:37:27.119Z,10.67
2018-01-14T11:38:29.601Z,10.73
2018-01-14T11:39:32.073Z,10.98
2018-01-14T11:40:34.568Z,10.45
2018-01-14T11:41:37.046Z,10.63
2018-01-14T11:42:39.517Z,9.93
2018-01-14T11:43:42.004Z,10.70
2018-01-14T11:44:44.602Z,9.88
2018-01-14T11:45:47.081Z,9.90
2018-01-14T11:46:49.561Z,9.52
2018-01-14T11:47:52.032Z,9.93
2018-01-14T11:48:54.516Z,11.17
2018-01-14T11:49:57.008Z,10.65
2018-01-14T11:50:59.496Z,10.80
2018-01-14T11:52:01.974Z,10.68
2018-01-14T11:53:04.446Z,10.93
2018-01-14T11:54:06.940Z,10.63
2018-01-14T11:55:09.419Z,10.88
2018-01-14T11:56:11.916Z,10.48
2018-01-14T11:57:14.407Z,11.00
2018-01-14T11:58:16.884Z,11.05
2018-01-14T11:59:19.369Z,10.73
2018-01-14T12:00:21.860Z,13.20
2018-01-14T12:01:24.338Z,14.55
2018-01-14T12:02:26.820Z,14.55
2018-01-14T12:03:29.290Z,15.18
2018-01-14T12:04:31.766Z,14.80
2018-01-14T12:05:34.242Z,12.55
2018-01-14T12:06:36.719Z,12.23
2018-01-14T12:07:39.212Z,13.60
2018-01-14T12:08:41.705Z,12.10
2018-01-14T12:09:44.206Z,11.50
2018-01-14T12:10:46.717Z,11.85
2018-01-14T12:11:49.194Z,11.38
2018-01-14T12:12:51.670Z,10.30
2018-01-14T12:13:54.261Z,11.50
2018-01-14T12:14:56.755Z,11.45
2018-01-14T12:15:59.259Z,10.55
2018-01-14T12:17:01.760Z,10.07
2018-01-14T12:18:04.230Z,10.45
2018-01-14T12:19:06.720Z,10.25
2018-01-14T12:20:09.198Z,10.00
2018-01-14T12:21:11.688Z,10.35
2018-01-14T12:22:14.180Z,10.25
2018-01-14T12:23:16.664Z,9.27
2018-01-14T12:24:19.156Z,9.55
2018-01-14T12:25:21.640Z,9.73
2018-01-14T12:26:24.113Z,9.85
2018-01-14T12:27:26.664Z,9.70
2018-01-14T12:28:29.180Z,9.10
2018-01-14T12:29:31.669Z,10.45
2018-01-14T12:30:34.199Z,9.40
2018-01-14T12:31:36.671Z,9.98
2018-01-14T12:32:50.968Z,9.65
2018-01-14T12:35:44.290Z,10.40
2018-01-14T12:36:46.781Z,9.50
2018-01-14T12:37:49.287Z,9.18
2018-01-14T12:38:51.779Z,9.82
2018-01-14T12:39:54.280Z,9.38
2018-01-14T12:40:56.768Z,9.70
2018-01-14T12:41:59.250Z,9.60
2018-01-14T12:43:01.731Z,10.10
2018-01-14T12:44:04.225Z,9.48
2018-01-14T12:45:06.717Z,9.70
2018-01-14T12:46:09.194Z,8.75
2018-01-14T12:47:11.670Z,9.30
2018-01-14T12:48:14.143Z,9.20
2018-01-14T12:49:16.633Z,9.63
2018-01-14T12:50:19.120Z,9.50
2018-01-14T12:51:21.595Z,9.90
2018-01-14T12:52:24.108Z,9.50
2018-01-14T12:53:26.587Z,9.65
2018-01-14T12:54:29.062Z,9.50
2018-01-14T12:55:31.542Z,9.60
2018-01-14T12:56:34.029Z,9.57
2018-01-14T12:57:36.620Z,10.45
2018-01-14T12:58:39.099Z,9.57
2018-01-14T12:59:41.609Z,8.73
2018-01-14T13:00:44.111Z,9.80
2018-01-14T13:01:46.607Z,9.80
2018-01-14T13:02:49.092Z,9.90
2018-01-14T13:03:51.580Z,10.48
2018-01-14T13:04:54.048Z,9.32
2018-01-14T13:05:56.540Z,10.77
2018-01-14T13:06:59.014Z,10.60
2018-01-14T13:08:01.509Z,10.18
2018-01-14T13:09:04.007Z,8.63
2018-01-14T13:10:06.481Z,9.63
2018-01-14T13:11:08.959Z,9.98
2018-01-14T13:12:11.467Z,9.80
2018-01-14T13:13:13.973Z,8.60
2018-01-14T13:14:16.447Z,9.40
2018-01-14T13:15:18.916Z,8.15
2018-01-14T13:16:21.520Z,9.45
2018-01-14T13:17:24.007Z,9.10
2018-01-14T13:18:26.474Z,8.13
2018-01-14T13:19:28.968Z,8.05
2018-01-14T13:20:31.462Z,8.50
2018-01-14T13:21:33.961Z,8.38
2018-01-14T13:22:36.454Z,8.70
2018-01-14T13:23:38.927Z,9.07
2018-01-14T13:24:41.393Z,8.60
2018-01-14T13:25:43.875Z,8.85
2018-01-14T13:26:46.350Z,9.40
2018-01-14T13:27:49.166Z,9.50
2018-01-14T13:28:51.633Z,8.70
2018-01-14T13:29:54.125Z,8.80
2018-01-14T13:30:56.582Z,8.60
2018-01-14T13:31:59.068Z,8.60
2018-01-14T13:33:01.541Z,7.97
2018-01-14T13:34:04.034Z,9.25
2018-01-14T13:35:06.497Z,8.33
2018-01-14T13:36:08.962Z,8.63
2018-01-14T13:37:11.441Z,8.40
2018-01-14T13:38:13.917Z,8.30
2018-01-14T13:39:16.396Z,8.70
2018-01-14T13:40:18.966Z,8.50
2018-01-14T13:41:21.426Z,8.77
2018-01-14T13:42:23.912Z,8.27
2018-01-14T13:43:26.446Z,7.75
2018-01-14T13:44:28.928Z,8.40
2018-01-14T13:45:31.460Z,8.80
2018-01-14T13:46:33.949Z,7.90
2018-01-14T13:47:36.428Z,8.73